sensor_id;sensor_type;location;lat;lon;timestamp;P1;durP1;ratioP1;P2;durP2;ratioP2
64342;SDS011;50675;53.530;-6.312;2023-07-08T08:42:44;7.22;;;1.50;;
64342;SDS011;50675;53.530;-6.312;2023-07-08T08:45:18;8.68;;;1.75;;
64342;SDS011;50675;53.530;-6.312;2023-07-08T08:47:47;9.73;;;2.05;;
64342;SDS011;50675;53.530;-6.312;2023-07-08T08:52:45;8.13;;;2.08;;
64342;SDS011;50675;53.530;-6.312;2023-07-08T10:10:52;6.20;;;1.67;;
64342;SDS011;50675;53.530;-6.312;2023-07-08T10:18:09;5.97;;;1.83;;
64342;SDS011;50675;53.530;-6.312;2023-07-08T10:29:15;5.95;;;1.40;;
64342;SDS011;50675;53.530;-6.312;2023-07-08T10:34:57;7.30;;;1.20;;
64342;SDS011;50675;53.530;-6.312;2023-07-08T11:09:30;7.03;;;1.88;;
64342;SDS011;50675;53.530;-6.312;2023-07-08T11:12:23;6.28;;;1.50;;
64342;SDS011;50675;53.530;-6.312;2023-07-08T14:11:15;6.68;;;1.88;;
64342;SDS011;50675;53.530;-6.312;2023-07-08T14:13:58;4.72;;;1.90;;
64342;SDS011;50675;53.530;-6.312;2023-07-08T14:19:20;7.03;;;1.80;;
64342;SDS011;50675;53.530;-6.312;2023-07-08T14:21:50;7.97;;;2.00;;
64342;SDS011;50675;53.530;-6.312;2023-07-08T14:24:19;6.93;;;2.03;;
64342;SDS011;50675;53.530;-6.312;2023-07-08T14:27:03;5.57;;;1.52;;
64342;SDS011;50675;53.530;-6.312;2023-07-08T14:29:29;7.00;;;1.70;;
64342;SDS011;50675;53.530;-6.312;2023-07-08T14:38:55;5.53;;;1.70;;
64342;SDS011;50675;53.530;-6.312;2023-07-08T14:42:21;5.43;;;1.63;;
64342;SDS011;50675;53.530;-6.312;2023-07-08T14:53:56;5.22;;;1.60;;
64342;SDS011;50675;53.530;-6.312;2023-07-08T15:03:43;5.75;;;1.65;;
64342;SDS011;50675;53.530;-6.312;2023-07-08T15:06:25;5.32;;;1.50;;
64342;SDS011;50675;53.530;-6.312;2023-07-08T15:25:50;3.53;;;1.33;;
64342;SDS011;50675;53.530;-6.312;2023-07-08T15:28:20;5.55;;;1.70;;
64342;SDS011;50675;53.530;-6.312;2023-07-08T15:31:02;7.10;;;1.88;;
64342;SDS011;50675;53.530;-6.312;2023-07-08T15:33:28;8.20;;;1.60;;
64342;SDS011;50675;53.530;-6.312;2023-07-08T15:35:54;4.03;;;1.58;;
64342;SDS011;50675;53.530;-6.312;2023-07-08T15:38:20;3.90;;;1.35;;
64342;SDS011;50675;53.530;-6.312;2023-07-08T15:40:46;3.70;;;1.20;;
64342;SDS011;50675;53.530;-6.312;2023-07-08T15:43:12;3.67;;;1.30;;
64342;SDS011;50675;53.530;-6.312;2023-07-08T15:45:40;4.97;;;1.88;;
64342;SDS011;50675;53.530;-6.312;2023-07-08T15:48:11;3.85;;;1.65;;
64342;SDS011;50675;53.530;-6.312;2023-07-08T15:50:41;4.82;;;1.45;;
64342;SDS011;50675;53.530;-6.312;2023-07-08T15:53:07;4.43;;;1.30;;
64342;SDS011;50675;53.530;-6.312;2023-07-08T15:55:37;5.07;;;1.55;;
64342;SDS011;50675;53.530;-6.312;2023-07-08T16:05:30;4.22;;;1.48;;
64342;SDS011;50675;53.530;-6.312;2023-07-08T16:11:40;4.90;;;1.40;;
64342;SDS011;50675;53.530;-6.312;2023-07-08T16:25:49;7.38;;;1.42;;
64342;SDS011;50675;53.530;-6.312;2023-07-08T16:28:33;3.58;;;1.35;;
64342;SDS011;50675;53.530;-6.312;2023-07-08T16:31:10;7.13;;;1.83;;
64342;SDS011;50675;53.530;-6.312;2023-07-08T16:33:37;6.05;;;1.50;;
64342;SDS011;50675;53.530;-6.312;2023-07-08T16:36:08;5.72;;;1.83;;
64342;SDS011;50675;53.530;-6.312;2023-07-08T16:38:39;5.88;;;1.90;;
64342;SDS011;50675;53.530;-6.312;2023-07-08T16:41:07;5.07;;;2.47;;
64342;SDS011;50675;53.530;-6.312;2023-07-08T16:43:36;4.50;;;1.73;;
64342;SDS011;50675;53.530;-6.312;2023-07-08T17:10:09;10.70;;;2.78;;
64342;SDS011;50675;53.530;-6.312;2023-07-08T17:12:35;12.25;;;2.75;;
64342;SDS011;50675;53.530;-6.312;2023-07-08T17:15:01;9.90;;;2.25;;
64342;SDS011;50675;53.530;-6.312;2023-07-08T17:17:27;12.45;;;2.80;;
64342;SDS011;50675;53.530;-6.312;2023-07-08T17:19:53;11.27;;;2.47;;
64342;SDS011;50675;53.530;-6.312;2023-07-08T17:22:19;9.93;;;2.80;;
64342;SDS011;50675;53.530;-6.312;2023-07-08T17:24:44;10.18;;;2.60;;
64342;SDS011;50675;53.530;-6.312;2023-07-08T17:27:11;11.55;;;3.15;;
64342;SDS011;50675;53.530;-6.312;2023-07-08T17:29:36;9.18;;;2.83;;
64342;SDS011;50675;53.530;-6.312;2023-07-08T17:32:02;12.68;;;2.53;;
64342;SDS011;50675;53.530;-6.312;2023-07-08T17:34:28;11.10;;;2.60;;
64342;SDS011;50675;53.530;-6.312;2023-07-08T17:36:54;8.80;;;2.42;;
64342;SDS011;50675;53.530;-6.312;2023-07-08T17:39:20;8.95;;;2.33;;
64342;SDS011;50675;53.530;-6.312;2023-07-08T17:41:46;10.90;;;2.60;;
64342;SDS011;50675;53.530;-6.312;2023-07-08T17:44:16;9.63;;;2.25;;
64342;SDS011;50675;53.530;-6.312;2023-07-08T17:46:42;11.30;;;2.55;;
64342;SDS011;50675;53.530;-6.312;2023-07-08T17:57:28;12.27;;;2.75;;
64342;SDS011;50675;53.530;-6.312;2023-07-08T17:59:54;6.28;;;2.40;;
64342;SDS011;50675;53.530;-6.312;2023-07-08T18:02:20;11.40;;;2.60;;
64342;SDS011;50675;53.530;-6.312;2023-07-08T18:04:47;10.90;;;2.80;;
64342;SDS011;50675;53.530;-6.312;2023-07-08T18:07:13;10.00;;;2.42;;
64342;SDS011;50675;53.530;-6.312;2023-07-08T18:09:39;8.90;;;2.05;;
64342;SDS011;50675;53.530;-6.312;2023-07-08T18:12:07;8.38;;;2.15;;
64342;SDS011;50675;53.530;-6.312;2023-07-08T18:14:35;14.45;;;3.20;;
64342;SDS011;50675;53.530;-6.312;2023-07-08T18:17:00;10.88;;;2.78;;
64342;SDS011;50675;53.530;-6.312;2023-07-08T18:19:26;10.93;;;2.83;;
64342;SDS011;50675;53.530;-6.312;2023-07-08T18:21:53;10.60;;;2.78;;
